sensor_id;sensor_type;location;lat;lon;timestamp;P1;durP1;ratioP1;P2;durP2;ratioP2
22152;SDS011;11242;50.536;12.688;2023-06-10T00:00:42;16.35;;;13.40;;
22152;SDS011;11242;50.536;12.688;2023-06-10T00:03:09;15.63;;;13.00;;
22152;SDS011;11242;50.536;12.688;2023-06-10T00:05:35;14.90;;;13.40;;
22152;SDS011;11242;50.536;12.688;2023-06-10T00:08:08;15.90;;;13.93;;
22152;SDS011;11242;50.536;12.688;2023-06-10T00:10:34;17.90;;;13.77;;
22152;SDS011;11242;50.536;12.688;2023-06-10T00:13:01;17.35;;;14.15;;
22152;SDS011;11242;50.536;12.688;2023-06-10T00:15:32;17.38;;;13.57;;
22152;SDS011;11242;50.536;12.688;2023-06-10T00:17:58;16.05;;;14.30;;
22152;SDS011;11242;50.536;12.688;2023-06-10T00:20:23;18.08;;;14.38;;
22152;SDS011;11242;50.536;12.688;2023-06-10T00:22:50;15.65;;;14.07;;
22152;SDS011;11242;50.536;12.688;2023-06-10T00:25:16;15.93;;;13.95;;
22152;SDS011;11242;50.536;12.688;2023-06-10T00:27:42;19.90;;;14.75;;
22152;SDS011;11242;50.536;12.688;2023-06-10T00:30:08;18.25;;;14.43;;
22152;SDS011;11242;50.536;12.688;2023-06-10T00:32:34;17.92;;;14.63;;
22152;SDS011;11242;50.536;12.688;2023-06-10T00:35:01;17.08;;;15.27;;
22152;SDS011;11242;50.536;12.688;2023-06-10T00:37:33;16.00;;;14.40;;
22152;SDS011;11242;50.536;12.688;2023-06-10T00:40:01;16.00;;;14.48;;
22152;SDS011;11242;50.536;12.688;2023-06-10T00:42:31;15.55;;;13.73;;
22152;SDS011;11242;50.536;12.688;2023-06-10T00:44:56;16.33;;;14.70;;
22152;SDS011;11242;50.536;12.688;2023-06-10T00:47:22;15.85;;;14.18;;
22152;SDS011;11242;50.536;12.688;2023-06-10T00:49:49;16.40;;;14.45;;
22152;SDS011;11242;50.536;12.688;2023-06-10T00:52:15;15.35;;;13.65;;
22152;SDS011;11242;50.536;12.688;2023-06-10T00:54:43;17.05;;;14.05;;
22152;SDS011;11242;50.536;12.688;2023-06-10T00:57:09;15.98;;;14.27;;
22152;SDS011;11242;50.536;12.688;2023-06-10T00:59:35;18.02;;;15.18;;
22152;SDS011;11242;50.536;12.688;2023-06-10T01:02:01;16.58;;;14.43;;
22152;SDS011;11242;50.536;12.688;2023-06-10T01:04:28;16.20;;;14.52;;
22152;SDS011;11242;50.536;12.688;2023-06-10T01:10:47;18.58;;;15.25;;
22152;SDS011;11242;50.536;12.688;2023-06-10T01:13:20;17.20;;;15.48;;
22152;SDS011;11242;50.536;12.688;2023-06-10T01:15:53;18.65;;;15.75;;
22152;SDS011;11242;50.536;12.688;2023-06-10T01:18:20;16.95;;;15.10;;
22152;SDS011;11242;50.536;12.688;2023-06-10T01:20:46;19.48;;;15.48;;
22152;SDS011;11242;50.536;12.688;2023-06-10T01:23:13;16.10;;;14.40;;
22152;SDS011;11242;50.536;12.688;2023-06-10T01:25:41;18.30;;;15.07;;
22152;SDS011;11242;50.536;12.688;2023-06-10T01:28:36;19.02;;;15.68;;
22152;SDS011;11242;50.536;12.688;2023-06-10T01:31:17;18.73;;;15.63;;
22152;SDS011;11242;50.536;12.688;2023-06-10T01:34:01;17.50;;;15.30;;
22152;SDS011;11242;50.536;12.688;2023-06-10T01:36:32;17.85;;;15.05;;
22152;SDS011;11242;50.536;12.688;2023-06-10T01:39:00;17.50;;;15.50;;
22152;SDS011;11242;50.536;12.688;2023-06-10T01:41:27;17.90;;;15.95;;
22152;SDS011;11242;50.536;12.688;2023-06-10T01:43:54;18.17;;;16.38;;
22152;SDS011;11242;50.536;12.688;2023-06-10T01:46:20;18.35;;;16.02;;
22152;SDS011;11242;50.536;12.688;2023-06-10T01:48:46;17.92;;;16.02;;
22152;SDS011;11242;50.536;12.688;2023-06-10T01:51:15;17.23;;;15.23;;
22152;SDS011;11242;50.536;12.688;2023-06-10T01:53:41;16.83;;;15.07;;
22152;SDS011;11242;50.536;12.688;2023-06-10T01:56:06;21.23;;;16.50;;
22152;SDS011;11242;50.536;12.688;2023-06-10T01:58:32;17.10;;;15.32;;
22152;SDS011;11242;50.536;12.688;2023-06-10T02:00:57;19.55;;;16.08;;
22152;SDS011;11242;50.536;12.688;2023-06-10T02:03:23;16.60;;;14.90;;
22152;SDS011;11242;50.536;12.688;2023-06-10T02:05:49;16.92;;;15.23;;
22152;SDS011;11242;50.536;12.688;2023-06-10T02:08:15;16.73;;;15.02;;
22152;SDS011;11242;50.536;12.688;2023-06-10T02:10:40;18.17;;;15.13;;
22152;SDS011;11242;50.536;12.688;2023-06-10T02:13:06;17.98;;;16.10;;
22152;SDS011;11242;50.536;12.688;2023-06-10T02:15:32;20.38;;;16.77;;
22152;SDS011;11242;50.536;12.688;2023-06-10T02:17:59;18.95;;;16.90;;
22152;SDS011;11242;50.536;12.688;2023-06-10T02:20:24;17.38;;;15.38;;
22152;SDS011;11242;50.536;12.688;2023-06-10T02:22:50;19.13;;;16.08;;
22152;SDS011;11242;50.536;12.688;2023-06-10T02:25:16;19.02;;;16.30;;
22152;SDS011;11242;50.536;12.688;2023-06-10T02:30:42;18.92;;;16.63;;
22152;SDS011;11242;50.536;12.688;2023-06-10T02:33:08;23.00;;;15.90;;
22152;SDS011;11242;50.536;12.688;2023-06-10T02:35:40;19.40;;;16.35;;
22152;SDS011;11242;50.536;12.688;2023-06-10T02:38:06;18.65;;;16.45;;
22152;SDS011;11242;50.536;12.688;2023-06-10T02:40:33;19.63;;;17.30;;
22152;SDS011;11242;50.536;12.688;2023-06-10T02:43:00;22.48;;;17.45;;
22152;SDS011;11242;50.536;12.688;2023-06-10T02:45:25;18.55;;;16.42;;
22152;SDS011;11242;50.536;12.688;2023-06-10T02:47:52;22.33;;;16.55;;
22152;SDS011;11242;50.536;12.688;2023-06-10T02:50:18;20.25;;;16.45;;
22152;SDS011;11242;50.536;12.688;2023-06-10T02:52:54;24.27;;;17.10;;
22152;SDS011;11242;50.536;12.688;2023-06-10T02:55:20;21.60;;;18.65;;
22152;SDS011;11242;50.536;12.688;2023-06-10T02:57:52;22.98;;;18.63;;
22152;SDS011;11242;50.536;12.688;2023-06-10T03:00:19;21.08;;;17.70;;
22152;SDS011;11242;50.536;12.688;2023-06-10T03:02:47;20.88;;;17.60;;
22152;SDS011;11242;50.536;12.688;2023-06-10T03:05:13;22.35;;;19.80;;
22152;SDS011;11242;50.536;12.688;2023-06-10T03:07:43;25.73;;;20.98;;
22152;SDS011;11242;50.536;12.688;2023-06-10T03:10:14;25.13;;;20.40;;
22152;SDS011;11242;50.536;12.688;2023-06-10T03:12:40;26.17;;;21.17;;
22152;SDS011;11242;50.536;12.688;2023-06-10T03:15:06;25.00;;;20.75;;
22152;SDS011;11242;50.536;12.688;2023-06-10T03:17:32;21.83;;;19.13;;
22152;SDS011;11242;50.536;12.688;2023-06-10T03:19:58;22.75;;;19.10;;
22152;SDS011;11242;50.536;12.688;2023-06-10T03:22:25;22.67;;;19.95;;
22152;SDS011;11242;50.536;12.688;2023-06-10T03:25:05;23.48;;;20.30;;
22152;SDS011;11242;50.536;12.688;2023-06-10T03:27:32;23.33;;;19.08;;
22152;SDS011;11242;50.536;12.688;2023-06-10T03:30:02;22.75;;;19.55;;
22152;SDS011;11242;50.536;12.688;2023-06-10T03:32:28;24.45;;;18.88;;
22152;SDS011;11242;50.536;12.688;2023-06-10T03:34:54;21.88;;;19.55;;
22152;SDS011;11242;50.536;12.688;2023-06-10T03:37:24;21.48;;;18.55;;
22152;SDS011;11242;50.536;12.688;2023-06-10T03:39:50;20.40;;;18.17;;
22152;SDS011;11242;50.536;12.688;2023-06-10T03:42:16;24.05;;;18.35;;
22152;SDS011;11242;50.536;12.688;2023-06-10T03:44:42;21.00;;;18.90;;
22152;SDS011;11242;50.536;12.688;2023-06-10T03:47:08;20.80;;;18.63;;
22152;SDS011;11242;50.536;12.688;2023-06-10T03:49:36;22.42;;;19.35;;
22152;SDS011;11242;50.536;12.688;2023-06-10T03:52:02;19.77;;;17.75;;
22152;SDS011;11242;50.536;12.688;2023-06-10T03:54:28;19.77;;;17.27;;
22152;SDS011;11242;50.536;12.688;2023-06-10T03:56:53;19.63;;;17.25;;
22152;SDS011;11242;50.536;12.688;2023-06-10T03:59:19;18.25;;;15.95;;
22152;SDS011;11242;50.536;12.688;2023-06-10T04:01:45;18.92;;;15.80;;
22152;SDS011;11242;50.536;12.688;2023-06-10T04:04:13;16.58;;;14.90;;
22152;SDS011;11242;50.536;12.688;2023-06-10T04:06:41;18.95;;;17.05;;
22152;SDS011;11242;50.536;12.688;2023-06-10T04:09:08;16.30;;;14.63;;
22152;SDS011;11242;50.536;12.688;2023-06-10T04:11:36;17.48;;;14.35;;
22152;SDS011;11242;50.536;12.688;2023-06-10T04:14:02;13.98;;;12.50;;
22152;SDS011;11242;50.536;12.688;2023-06-10T04:16:28;12.40;;;11.10;;
22152;SDS011;11242;50.536;12.688;2023-06-10T04:18:54;12.27;;;10.95;;
22152;SDS011;11242;50.536;12.688;2023-06-10T04:21:20;13.32;;;10.50;;
22152;SDS011;11242;50.536;12.688;2023-06-10T04:23:47;13.27;;;11.93;;
22152;SDS011;11242;50.536;12.688;2023-06-10T04:26:13;11.95;;;10.15;;
22152;SDS011;11242;50.536;12.688;2023-06-10T04:28:39;11.98;;;10.30;;
22152;SDS011;11242;50.536;12.688;2023-06-10T04:31:05;11.60;;;10.40;;
22152;SDS011;11242;50.536;12.688;2023-06-10T04:33:31;14.38;;;9.57;;
22152;SDS011;11242;50.536;12.688;2023-06-10T04:35:57;11.75;;;9.27;;
22152;SDS011;11242;50.536;12.688;2023-06-10T04:38:27;10.77;;;9.50;;
22152;SDS011;11242;50.536;12.688;2023-06-10T04:40:53;9.93;;;9.05;;
22152;SDS011;11242;50.536;12.688;2023-06-10T04:43:21;9.32;;;8.25;;
22152;SDS011;11242;50.536;12.688;2023-06-10T04:45:47;10.10;;;8.93;;
22152;SDS011;11242;50.536;12.688;2023-06-10T04:48:13;10.95;;;8.43;;
22152;SDS011;11242;50.536;12.688;2023-06-10T04:50:39;9.95;;;8.52;;
22152;SDS011;11242;50.536;12.688;2023-06-10T04:53:04;9.45;;;8.32;;
22152;SDS011;11242;50.536;12.688;2023-06-10T04:55:33;9.50;;;8.50;;
22152;SDS011;11242;50.536;12.688;2023-06-10T04:57:59;10.02;;;9.13;;
22152;SDS011;11242;50.536;12.688;2023-06-10T05:00:28;9.55;;;8.40;;
22152;SDS011;11242;50.536;12.688;2023-06-10T05:02:53;9.48;;;8.60;;
22152;SDS011;11242;50.536;12.688;2023-06-10T05:05:21;9.13;;;8.23;;
22152;SDS011;11242;50.536;12.688;2023-06-10T05:07:46;8.77;;;7.97;;
22152;SDS011;11242;50.536;12.688;2023-06-10T05:10:12;9.45;;;8.48;;
22152;SDS011;11242;50.536;12.688;2023-06-10T05:12:38;9.02;;;8.02;;
22152;SDS011;11242;50.536;12.688;2023-06-10T05:15:04;10.52;;;8.15;;
22152;SDS011;11242;50.536;12.688;2023-06-10T05:17:31;9.45;;;8.30;;
22152;SDS011;11242;50.536;12.688;2023-06-10T05:19:57;13.98;;;12.55;;
22152;SDS011;11242;50.536;12.688;2023-06-10T05:22:23;10.45;;;9.35;;
22152;SDS011;11242;50.536;12.688;2023-06-10T05:24:52;8.52;;;7.82;;
22152;SDS011;11242;50.536;12.688;2023-06-10T05:27:18;9.02;;;8.23;;
22152;SDS011;11242;50.536;12.688;2023-06-10T05:29:44;11.27;;;7.88;;
22152;SDS011;11242;50.536;12.688;2023-06-10T05:32:10;8.45;;;7.65;;
22152;SDS011;11242;50.536;12.688;2023-06-10T05:34:36;8.38;;;7.57;;
22152;SDS011;11242;50.536;12.688;2023-06-10T05:37:02;8.27;;;7.57;;
22152;SDS011;11242;50.536;12.688;2023-06-10T05:39:28;7.82;;;7.18;;
22152;SDS011;11242;50.536;12.688;2023-06-10T05:41:54;7.63;;;6.63;;
22152;SDS011;11242;50.536;12.688;2023-06-10T05:44:19;6.70;;;6.00;;
22152;SDS011;11242;50.536;12.688;2023-06-10T05:46:45;7.38;;;6.78;;
22152;SDS011;11242;50.536;12.688;2023-06-10T05:49:10;6.85;;;6.35;;
22152;SDS011;11242;50.536;12.688;2023-06-10T05:51:36;6.82;;;6.22;;
22152;SDS011;11242;50.536;12.688;2023-06-10T05:54:02;6.38;;;5.78;;
22152;SDS011;11242;50.536;12.688;2023-06-10T05:56:28;6.43;;;5.82;;
22152;SDS011;11242;50.536;12.688;2023-06-10T05:58:54;6.55;;;5.97;;
22152;SDS011;11242;50.536;12.688;2023-06-10T06:01:19;6.60;;;6.05;;
22152;SDS011;11242;50.536;12.688;2023-06-10T06:03:45;8.27;;;5.60;;
22152;SDS011;11242;50.536;12.688;2023-06-10T06:06:10;6.55;;;5.95;;
22152;SDS011;11242;50.536;12.688;2023-06-10T06:08:36;6.47;;;5.97;;
22152;SDS011;11242;50.536;12.688;2023-06-10T06:11:05;6.53;;;5.93;;
22152;SDS011;11242;50.536;12.688;2023-06-10T06:13:30;6.28;;;5.80;;
22152;SDS011;11242;50.536;12.688;2023-06-10T06:15:56;5.38;;;4.97;;
22152;SDS011;11242;50.536;12.688;2023-06-10T06:18:22;7.03;;;5.78;;
22152;SDS011;11242;50.536;12.688;2023-06-10T06:20:47;5.78;;;5.28;;
22152;SDS011;11242;50.536;12.688;2023-06-10T06:23:13;6.05;;;5.55;;
22152;SDS011;11242;50.536;12.688;2023-06-10T06:25:39;6.10;;;5.60;;
22152;SDS011;11242;50.536;12.688;2023-06-10T06:28:08;5.85;;;5.45;;
22152;SDS011;11242;50.536;12.688;2023-06-10T06:30:35;5.80;;;5.30;;
22152;SDS011;11242;50.536;12.688;2023-06-10T06:33:01;5.70;;;5.13;;
22152;SDS011;11242;50.536;12.688;2023-06-10T06:35:27;7.15;;;5.20;;
22152;SDS011;11242;50.536;12.688;2023-06-10T06:37:52;5.40;;;5.00;;
22152;SDS011;11242;50.536;12.688;2023-06-10T06:40:24;5.55;;;5.05;;
22152;SDS011;11242;50.536;12.688;2023-06-10T06:42:49;5.38;;;4.97;;
22152;SDS011;11242;50.536;12.688;2023-06-10T06:45:33;6.05;;;5.57;;
22152;SDS011;11242;50.536;12.688;2023-06-10T06:47:59;5.90;;;4.93;;
22152;SDS011;11242;50.536;12.688;2023-06-10T06:50:28;5.38;;;4.97;;
22152;SDS011;11242;50.536;12.688;2023-06-10T06:52:54;5.97;;;5.45;;
22152;SDS011;11242;50.536;12.688;2023-06-10T06:55:19;5.70;;;5.28;;
22152;SDS011;11242;50.536;12.688;2023-06-10T06:57:45;6.25;;;5.10;;
22152;SDS011;11242;50.536;12.688;2023-06-10T07:00:12;5.90;;;5.25;;
22152;SDS011;11242;50.536;12.688;2023-06-10T07:02:37;6.53;;;5.93;;
22152;SDS011;11242;50.536;12.688;2023-06-10T07:05:03;7.55;;;6.75;;
22152;SDS011;11242;50.536;12.688;2023-06-10T07:07:30;6.45;;;5.95;;
22152;SDS011;11242;50.536;12.688;2023-06-10T07:09:56;6.75;;;6.25;;
22152;SDS011;11242;50.536;12.688;2023-06-10T07:12:21;6.50;;;6.00;;
22152;SDS011;11242;50.536;12.688;2023-06-10T07:14:49;7.55;;;5.60;;
22152;SDS011;11242;50.536;12.688;2023-06-10T07:17:16;5.32;;;4.93;;
22152;SDS011;11242;50.536;12.688;2023-06-10T07:19:43;6.75;;;6.15;;
22152;SDS011;11242;50.536;12.688;2023-06-10T07:22:09;4.70;;;4.40;;
22152;SDS011;11242;50.536;12.688;2023-06-10T07:24:34;5.22;;;4.72;;
22152;SDS011;11242;50.536;12.688;2023-06-10T07:27:00;6.65;;;4.70;;
22152;SDS011;11242;50.536;12.688;2023-06-10T07:29:26;4.97;;;4.57;;
22152;SDS011;11242;50.536;12.688;2023-06-10T07:31:51;5.75;;;5.30;;
22152;SDS011;11242;50.536;12.688;2023-06-10T07:34:18;5.25;;;4.75;;
22152;SDS011;11242;50.536;12.688;2023-06-10T07:36:44;5.25;;;4.82;;
22152;SDS011;11242;50.536;12.688;2023-06-10T07:39:09;5.18;;;4.68;;
22152;SDS011;11242;50.536;12.688;2023-06-10T07:41:35;5.78;;;5.05;;
22152;SDS011;11242;50.536;12.688;2023-06-10T07:44:01;6.03;;;5.38;;
22152;SDS011;11242;50.536;12.688;2023-06-10T07:46:27;8.32;;;5.32;;
22152;SDS011;11242;50.536;12.688;2023-06-10T07:48:53;7.15;;;5.00;;
22152;SDS011;11242;50.536;12.688;2023-06-10T07:51:19;5.50;;;4.75;;
22152;SDS011;11242;50.536;12.688;2023-06-10T07:53:46;5.97;;;5.45;;
22152;SDS011;11242;50.536;12.688;2023-06-10T07:56:11;6.10;;;5.50;;
22152;SDS011;11242;50.536;12.688;2023-06-10T07:58:40;6.18;;;5.65;;
22152;SDS011;11242;50.536;12.688;2023-06-10T08:01:06;5.47;;;4.97;;
22152;SDS011;11242;50.536;12.688;2023-06-10T08:03:32;6.65;;;5.60;;
22152;SDS011;11242;50.536;12.688;2023-06-10T08:05:58;7.60;;;5.53;;
22152;SDS011;11242;50.536;12.688;2023-06-10T08:08:23;6.60;;;5.55;;
22152;SDS011;11242;50.536;12.688;2023-06-10T08:10:49;6.10;;;5.50;;
22152;SDS011;11242;50.536;12.688;2023-06-10T08:13:16;6.97;;;5.40;;
22152;SDS011;11242;50.536;12.688;2023-06-10T08:15:41;7.50;;;5.53;;
22152;SDS011;11242;50.536;12.688;2023-06-10T08:18:07;7.10;;;6.45;;
22152;SDS011;11242;50.536;12.688;2023-06-10T08:20:32;7.80;;;6.22;;
22152;SDS011;11242;50.536;12.688;2023-06-10T08:22:58;6.47;;;5.88;;
22152;SDS011;11242;50.536;12.688;2023-06-10T08:25:24;7.95;;;6.68;;
22152;SDS011;11242;50.536;12.688;2023-06-10T08:27:49;7.10;;;6.28;;
22152;SDS011;11242;50.536;12.688;2023-06-10T08:30:17;9.82;;;6.68;;
22152;SDS011;11242;50.536;12.688;2023-06-10T08:32:43;8.25;;;6.72;;
22152;SDS011;11242;50.536;12.688;2023-06-10T08:35:11;7.22;;;6.57;;
22152;SDS011;11242;50.536;12.688;2023-06-10T08:37:37;7.53;;;6.93;;
22152;SDS011;11242;50.536;12.688;2023-06-10T08:40:03;8.90;;;7.03;;
22152;SDS011;11242;50.536;12.688;2023-06-10T08:42:33;8.02;;;7.30;;
22152;SDS011;11242;50.536;12.688;2023-06-10T08:45:05;9.75;;;7.60;;
22152;SDS011;11242;50.536;12.688;2023-06-10T08:47:35;11.13;;;7.30;;
22152;SDS011;11242;50.536;12.688;2023-06-10T08:50:04;9.98;;;7.55;;
22152;SDS011;11242;50.536;12.688;2023-06-10T08:52:35;8.40;;;7.13;;
22152;SDS011;11242;50.536;12.688;2023-06-10T08:55:05;8.18;;;7.38;;
22152;SDS011;11242;50.536;12.688;2023-06-10T08:57:33;9.52;;;8.23;;
22152;SDS011;11242;50.536;12.688;2023-06-10T09:00:00;9.55;;;7.80;;
22152;SDS011;11242;50.536;12.688;2023-06-10T09:02:29;8.95;;;8.15;;
22152;SDS011;11242;50.536;12.688;2023-06-10T09:04:56;8.20;;;7.40;;
22152;SDS011;11242;50.536;12.688;2023-06-10T09:07:22;8.88;;;8.07;;
22152;SDS011;11242;50.536;12.688;2023-06-10T09:09:50;9.65;;;8.57;;
22152;SDS011;11242;50.536;12.688;2023-06-10T09:12:18;9.50;;;8.23;;
22152;SDS011;11242;50.536;12.688;2023-06-10T09:14:44;11.45;;;8.23;;
22152;SDS011;11242;50.536;12.688;2023-06-10T09:17:10;9.63;;;8.82;;
22152;SDS011;11242;50.536;12.688;2023-06-10T09:19:36;9.75;;;8.23;;
22152;SDS011;11242;50.536;12.688;2023-06-10T09:22:03;10.63;;;9.60;;
22152;SDS011;11242;50.536;12.688;2023-06-10T09:24:29;11.38;;;10.38;;
22152;SDS011;11242;50.536;12.688;2023-06-10T09:27:01;11.63;;;10.15;;
22152;SDS011;11242;50.536;12.688;2023-06-10T09:29:29;10.20;;;9.23;;
22152;SDS011;11242;50.536;12.688;2023-06-10T09:31:54;14.48;;;11.50;;
22152;SDS011;11242;50.536;12.688;2023-06-10T09:34:24;14.43;;;11.35;;
22152;SDS011;11242;50.536;12.688;2023-06-10T09:36:51;13.48;;;11.77;;
22152;SDS011;11242;50.536;12.688;2023-06-10T09:39:17;13.27;;;12.07;;
22152;SDS011;11242;50.536;12.688;2023-06-10T09:41:44;12.82;;;11.63;;
22152;SDS011;11242;50.536;12.688;2023-06-10T09:44:17;12.93;;;11.25;;
22152;SDS011;11242;50.536;12.688;2023-06-10T09:46:45;25.65;;;12.80;;
22152;SDS011;11242;50.536;12.688;2023-06-10T09:49:12;13.77;;;11.85;;
22152;SDS011;11242;50.536;12.688;2023-06-10T09:51:37;11.63;;;10.48;;
22152;SDS011;11242;50.536;12.688;2023-06-10T09:54:13;12.70;;;10.30;;
22152;SDS011;11242;50.536;12.688;2023-06-10T10:00:27;11.82;;;10.73;;
22152;SDS011;11242;50.536;12.688;2023-06-10T10:02:53;11.00;;;9.95;;
22152;SDS011;11242;50.536;12.688;2023-06-10T10:05:22;11.18;;;10.18;;
22152;SDS011;11242;50.536;12.688;2023-06-10T10:07:47;12.50;;;11.07;;
22152;SDS011;11242;50.536;12.688;2023-06-10T10:10:14;13.70;;;10.40;;
22152;SDS011;11242;50.536;12.688;2023-06-10T10:12:41;13.27;;;10.68;;
22152;SDS011;11242;50.536;12.688;2023-06-10T10:15:08;11.80;;;10.57;;
22152;SDS011;11242;50.536;12.688;2023-06-10T10:17:35;10.63;;;9.73;;
22152;SDS011;11242;50.536;12.688;2023-06-10T10:20:05;10.32;;;9.07;;
22152;SDS011;11242;50.536;12.688;2023-06-10T10:22:37;10.65;;;9.65;;
22152;SDS011;11242;50.536;12.688;2023-06-10T10:25:11;10.13;;;9.07;;
22152;SDS011;11242;50.536;12.688;2023-06-10T10:27:46;11.32;;;9.10;;
22152;SDS011;11242;50.536;12.688;2023-06-10T10:30:16;9.57;;;8.77;;
22152;SDS011;11242;50.536;12.688;2023-06-10T10:32:58;9.65;;;8.85;;
22152;SDS011;11242;50.536;12.688;2023-06-10T10:35:30;10.55;;;9.52;;
22152;SDS011;11242;50.536;12.688;2023-06-10T10:37:57;9.90;;;9.00;;
22152;SDS011;11242;50.536;12.688;2023-06-10T10:40:23;13.18;;;9.40;;
22152;SDS011;11242;50.536;12.688;2023-06-10T10:42:50;12.02;;;9.68;;
22152;SDS011;11242;50.536;12.688;2023-06-10T10:45:16;11.27;;;9.55;;
22152;SDS011;11242;50.536;12.688;2023-06-10T10:47:43;10.20;;;9.30;;
22152;SDS011;11242;50.536;12.688;2023-06-10T10:50:17;11.20;;;9.75;;
22152;SDS011;11242;50.536;12.688;2023-06-10T10:52:54;14.18;;;11.07;;
22152;SDS011;11242;50.536;12.688;2023-06-10T10:55:20;16.00;;;11.70;;
22152;SDS011;11242;50.536;12.688;2023-06-10T10:58:09;17.55;;;13.57;;
22152;SDS011;11242;50.536;12.688;2023-06-10T11:00:43;17.58;;;14.50;;
22152;SDS011;11242;50.536;12.688;2023-06-10T11:03:13;15.77;;;14.18;;
22152;SDS011;11242;50.536;12.688;2023-06-10T11:08:12;16.98;;;15.30;;
22152;SDS011;11242;50.536;12.688;2023-06-10T11:10:50;16.90;;;15.05;;
22152;SDS011;11242;50.536;12.688;2023-06-10T11:13:20;20.88;;;16.55;;
22152;SDS011;11242;50.536;12.688;2023-06-10T11:15:48;18.88;;;16.88;;
22152;SDS011;11242;50.536;12.688;2023-06-10T11:18:24;18.70;;;16.77;;
22152;SDS011;11242;50.536;12.688;2023-06-10T11:21:06;21.35;;;19.15;;
22152;SDS011;11242;50.536;12.688;2023-06-10T11:31:33;19.52;;;17.58;;
22152;SDS011;11242;50.536;12.688;2023-06-10T11:34:04;17.35;;;15.00;;
22152;SDS011;11242;50.536;12.688;2023-06-10T11:36:31;16.08;;;11.95;;
22152;SDS011;11242;50.536;12.688;2023-06-10T11:39:04;14.32;;;12.68;;
22152;SDS011;11242;50.536;12.688;2023-06-10T11:41:31;13.00;;;10.80;;
22152;SDS011;11242;50.536;12.688;2023-06-10T11:44:01;12.88;;;11.57;;
22152;SDS011;11242;50.536;12.688;2023-06-10T11:46:45;11.48;;;10.35;;
22152;SDS011;11242;50.536;12.688;2023-06-10T11:49:13;11.02;;;9.38;;
22152;SDS011;11242;50.536;12.688;2023-06-10T11:51:40;10.02;;;9.10;;
22152;SDS011;11242;50.536;12.688;2023-06-10T11:54:09;8.90;;;7.90;;
22152;SDS011;11242;50.536;12.688;2023-06-10T11:56:34;9.45;;;8.38;;
22152;SDS011;11242;50.536;12.688;2023-06-10T11:59:01;9.82;;;8.82;;
22152;SDS011;11242;50.536;12.688;2023-06-10T12:01:36;12.50;;;8.30;;
22152;SDS011;11242;50.536;12.688;2023-06-10T12:04:13;8.80;;;8.00;;
22152;SDS011;11242;50.536;12.688;2023-06-10T12:06:50;8.73;;;7.82;;
22152;SDS011;11242;50.536;12.688;2023-06-10T12:11:59;8.57;;;7.80;;
22152;SDS011;11242;50.536;12.688;2023-06-10T12:19:58;8.38;;;7.57;;
22152;SDS011;11242;50.536;12.688;2023-06-10T12:22:25;7.97;;;6.95;;
22152;SDS011;11242;50.536;12.688;2023-06-10T12:24:58;10.40;;;8.00;;
22152;SDS011;11242;50.536;12.688;2023-06-10T12:27:24;8.63;;;7.90;;
22152;SDS011;11242;50.536;12.688;2023-06-10T12:29:51;9.70;;;7.05;;
22152;SDS011;11242;50.536;12.688;2023-06-10T12:32:20;8.85;;;6.88;;
22152;SDS011;11242;50.536;12.688;2023-06-10T12:35:01;8.77;;;6.80;;
22152;SDS011;11242;50.536;12.688;2023-06-10T12:37:29;7.82;;;7.13;;
22152;SDS011;11242;50.536;12.688;2023-06-10T12:39:55;9.90;;;6.78;;
22152;SDS011;11242;50.536;12.688;2023-06-10T12:42:24;7.55;;;6.65;;
22152;SDS011;11242;50.536;12.688;2023-06-10T12:44:53;11.48;;;6.30;;
22152;SDS011;11242;50.536;12.688;2023-06-10T12:47:19;6.78;;;5.97;;
22152;SDS011;11242;50.536;12.688;2023-06-10T12:49:44;8.55;;;6.72;;
22152;SDS011;11242;50.536;12.688;2023-06-10T12:52:10;7.05;;;6.30;;
22152;SDS011;11242;50.536;12.688;2023-06-10T12:54:36;6.95;;;6.35;;
22152;SDS011;11242;50.536;12.688;2023-06-10T12:57:02;6.90;;;6.20;;
22152;SDS011;11242;50.536;12.688;2023-06-10T12:59:28;6.80;;;6.10;;
22152;SDS011;11242;50.536;12.688;2023-06-10T13:01:54;6.93;;;6.05;;
22152;SDS011;11242;50.536;12.688;2023-06-10T13:04:19;8.02;;;6.38;;
22152;SDS011;11242;50.536;12.688;2023-06-10T13:06:46;6.60;;;6.10;;
22152;SDS011;11242;50.536;12.688;2023-06-10T13:09:15;6.47;;;5.88;;
22152;SDS011;11242;50.536;12.688;2023-06-10T13:11:41;6.20;;;5.68;;
22152;SDS011;11242;50.536;12.688;2023-06-10T13:14:07;7.00;;;6.30;;
22152;SDS011;11242;50.536;12.688;2023-06-10T13:16:34;8.10;;;6.30;;
22152;SDS011;11242;50.536;12.688;2023-06-10T13:19:03;6.75;;;6.13;;
22152;SDS011;11242;50.536;12.688;2023-06-10T13:21:30;8.13;;;6.38;;
22152;SDS011;11242;50.536;12.688;2023-06-10T13:23:57;8.13;;;7.35;;
22152;SDS011;11242;50.536;12.688;2023-06-10T13:26:22;8.82;;;6.30;;
22152;SDS011;11242;50.536;12.688;2023-06-10T13:28:48;6.28;;;5.78;;
22152;SDS011;11242;50.536;12.688;2023-06-10T13:31:13;6.63;;;6.07;;
22152;SDS011;11242;50.536;12.688;2023-06-10T13:33:39;10.05;;;6.43;;
22152;SDS011;11242;50.536;12.688;2023-06-10T13:36:05;6.60;;;6.00;;
22152;SDS011;11242;50.536;12.688;2023-06-10T13:38:31;6.57;;;5.97;;
22152;SDS011;11242;50.536;12.688;2023-06-10T13:40:56;6.75;;;6.15;;
22152;SDS011;11242;50.536;12.688;2023-06-10T13:43:22;7.65;;;6.05;;
22152;SDS011;11242;50.536;12.688;2023-06-10T13:45:48;6.97;;;6.30;;
22152;SDS011;11242;50.536;12.688;2023-06-10T13:48:14;7.20;;;6.50;;
22152;SDS011;11242;50.536;12.688;2023-06-10T13:50:42;7.35;;;6.30;;
22152;SDS011;11242;50.536;12.688;2023-06-10T13:53:10;6.38;;;5.88;;
22152;SDS011;11242;50.536;12.688;2023-06-10T13:55:36;9.38;;;5.90;;
22152;SDS011;11242;50.536;12.688;2023-06-10T13:58:02;6.22;;;5.47;;
22152;SDS011;11242;50.536;12.688;2023-06-10T14:00:28;6.72;;;6.00;;
22152;SDS011;11242;50.536;12.688;2023-06-10T14:02:54;8.50;;;6.03;;
22152;SDS011;11242;50.536;12.688;2023-06-10T14:05:19;6.45;;;5.72;;
22152;SDS011;11242;50.536;12.688;2023-06-10T14:07:45;6.63;;;6.03;;
22152;SDS011;11242;50.536;12.688;2023-06-10T14:10:11;6.30;;;5.72;;
22152;SDS011;11242;50.536;12.688;2023-06-10T14:12:36;7.13;;;6.00;;
22152;SDS011;11242;50.536;12.688;2023-06-10T14:15:02;7.07;;;6.18;;
22152;SDS011;11242;50.536;12.688;2023-06-10T14:17:28;7.07;;;5.90;;
22152;SDS011;11242;50.536;12.688;2023-06-10T14:19:53;7.32;;;6.63;;
22152;SDS011;11242;50.536;12.688;2023-06-10T14:22:19;6.40;;;5.90;;
22152;SDS011;11242;50.536;12.688;2023-06-10T14:24:48;8.65;;;6.63;;
22152;SDS011;11242;50.536;12.688;2023-06-10T14:27:13;10.30;;;7.15;;
22152;SDS011;11242;50.536;12.688;2023-06-10T14:29:39;6.78;;;6.18;;
22152;SDS011;11242;50.536;12.688;2023-06-10T14:32:05;8.15;;;6.75;;
22152;SDS011;11242;50.536;12.688;2023-06-10T14:34:31;8.32;;;6.70;;
22152;SDS011;11242;50.536;12.688;2023-06-10T14:36:59;7.30;;;6.60;;
22152;SDS011;11242;50.536;12.688;2023-06-10T14:39:25;7.50;;;6.70;;
22152;SDS011;11242;50.536;12.688;2023-06-10T14:41:51;7.40;;;6.47;;
22152;SDS011;11242;50.536;12.688;2023-06-10T14:44:19;6.95;;;6.30;;
22152;SDS011;11242;50.536;12.688;2023-06-10T14:46:48;7.75;;;5.95;;
22152;SDS011;11242;50.536;12.688;2023-06-10T14:49:14;7.15;;;6.55;;
22152;SDS011;11242;50.536;12.688;2023-06-10T14:51:39;7.60;;;6.72;;
22152;SDS011;11242;50.536;12.688;2023-06-10T14:54:05;7.47;;;6.70;;